createdAt,value
2022-08-26T00:01:17.685Z,97707.1818453204
2022-08-26T00:04:17.088Z,97710.12727949231
2022-08-26T00:07:17.280Z,97709.31928349269
2022-08-26T00:11:26.542Z,97716.33473709083
2022-08-26T00:14:16.522Z,97712.59921594098
2022-08-26T00:17:16.609Z,97713.49731656331
2022-08-26T00:21:15.991Z,97707.71350721385
2022-08-26T00:24:16.861Z,97710.81463905743
2022-08-26T00:27:16.397Z,97709.06765164196
2022-08-26T00:31:16.380Z,97713.49004669051
2022-08-26T00:34:19.441Z,97710.0886836826
2022-08-26T00:37:16.851Z,97710.59721944084
2022-08-26T00:41:18.742Z,97717.22965783808
2022-08-26T00:44:17.013Z,97715.66066356588
2022-08-26T00:47:24.477Z,97714.74892872464
2022-08-26T00:51:19.403Z,97713.56111118168
2022-08-26T00:54:19.576Z,97713.48853861334
2022-08-26T00:57:18.712Z,97710.47234993713
2022-08-26T01:01:17.480Z,97704.00562401647
2022-08-26T01:04:21.751Z,97708.33057061043
2022-08-26T01:07:16.720Z,97707.77747526568
2022-08-26T01:11:16.557Z,97705.30895291948
2022-08-26T01:14:20.126Z,97704.67405363772
2022-08-26T01:17:17.384Z,97705.36697742132
2022-08-26T01:21:25.324Z,97706.84383566343
2022-08-26T01:24:17.441Z,97700.03053718404
2022-08-26T01:27:19.612Z,97697.74934639744
2022-08-26T01:31:19.675Z,97699.0402877371
2022-08-26T01:34:21.149Z,97699.45375967876
2022-08-26T01:37:19.774Z,97701.68685575228
2022-08-26T01:41:19.726Z,97696.20874439199
2022-08-26T01:44:22.117Z,97695.1933001421
2022-08-26T01:47:19.033Z,97694.7631182997
2022-08-26T01:51:17.571Z,97694.75559939514
2022-08-26T01:54:16.321Z,97691.86608338117
2022-08-26T01:57:18.267Z,97690.99074464169
2022-08-26T02:01:17.589Z,97694.73428348421
2022-08-26T02:04:22.588Z,97695.52693155395
2022-08-26T02:07:19.890Z,97690.95677915786
2022-08-26T02:11:15.686Z,97688.40963472179
2022-08-26T02:14:19.864Z,97684.2492365329
2022-08-26T02:17:19.036Z,97686.92892895336
2022-08-26T02:21:16.856Z,97682.8133102288
2022-08-26T02:24:21.219Z,97686.90298260051
2022-08-26T02:27:20.938Z,97686.05209357775
2022-08-26T02:31:16.468Z,97680.31723493361
2022-08-26T02:34:20.877Z,97680.51558545572
2022-08-26T02:37:17.692Z,97681.49917683771
2022-08-26T02:41:16.166Z,97679.97815337966
2022-08-26T02:44:16.651Z,97676.84828923052
2022-08-26T02:47:16.600Z,97679.15661721819
2022-08-26T02:51:16.565Z,97680.98749719278
2022-08-26T02:54:17.475Z,97678.86902042157
2022-08-26T02:57:17.111Z,97676.58040871279
2022-08-26T03:11:47.233Z,97679.05565142402
2022-08-26T03:14:47.392Z,97670.6374380097
2022-08-26T03:17:48.100Z,97665.9805804697
2022-08-26T03:21:17.762Z,97668.95051893294
2022-08-26T03:24:17.927Z,97661.89421723584
2022-08-26T03:27:16.720Z,97659.74585103706
2022-08-26T03:31:17.048Z,97659.82880494017
2022-08-26T03:34:17.876Z,97657.40252343767
2022-08-26T03:37:17.006Z,97657.84237274401
2022-08-26T03:41:17.932Z,97657.42320277021
2022-08-26T03:44:16.688Z,97649.72493630396
2022-08-26T03:47:17.143Z,97652.35220474118
2022-08-26T03:51:18.197Z,97654.2316225132
2022-08-26T03:54:16.946Z,97654.17901943294
2022-08-26T03:57:16.848Z,97645.96042712763
2022-08-26T04:01:16.462Z,97646.54375947104
2022-08-26T04:04:17.253Z,97649.80590847881
2022-08-26T04:07:17.121Z,97647.22366173228
2022-08-26T04:11:18.010Z,97644.79504634032
2022-08-26T04:14:20.260Z,97647.31484451493
2022-08-26T04:17:17.159Z,97646.65629720323
2022-08-26T04:21:16.728Z,97646.95701870245
2022-08-26T04:24:17.654Z,97643.27475549658
2022-08-26T04:27:16.932Z,97643.39679681699
2022-08-26T04:31:17.902Z,97632.92555676437
2022-08-26T04:34:16.890Z,97638.78400771976
2022-08-26T04:37:17.073Z,97635.99123055553
2022-08-26T04:41:17.169Z,97636.90722324472
2022-08-26T04:44:17.431Z,97635.95787203488
2022-08-26T04:47:17.134Z,97637.45400625576
2022-08-26T04:51:16.230Z,97644.899710982
2022-08-26T04:54:16.721Z,97643.40600864706
2022-08-26T04:57:16.843Z,97646.61442473042
2022-08-26T05:01:16.560Z,97651.77950399
2022-08-26T05:04:19.070Z,97647.83209705215
2022-08-26T05:07:17.700Z,97646.17984518298
2022-08-26T05:11:16.428Z,97643.71269479945
2022-08-26T05:14:16.981Z,97643.83391204156
2022-08-26T05:17:16.720Z,97646.71102579798
2022-08-26T05:21:18.968Z,97648.50561244144
2022-08-26T05:24:17.780Z,97645.80418963401
2022-08-26T05:27:16.506Z,97640.59897859715
2022-08-26T05:31:18.799Z,97641.50577756824
2022-08-26T05:34:16.158Z,97646.85930931091
2022-08-26T05:37:17.086Z,97648.77788279265
2022-08-26T05:41:19.173Z,97651.81896283297
2022-08-26T05:44:17.845Z,97650.62670001172
2022-08-26T05:47:16.331Z,97655.02685697404
2022-08-26T05:51:16.694Z,97661.2836333441
2022-08-26T05:54:21.367Z,97656.81273627994
2022-08-26T05:57:16.556Z,97654.27530903067
2022-08-26T06:01:20.397Z,97655.11906329199
2022-08-26T06:04:18.547Z,97661.0506948655
2022-08-26T06:07:18.620Z,97659.7887261139
2022-08-26T06:11:19.588Z,97659.67042934182
2022-08-26T06:14:17.228Z,97655.93581809252
2022-08-26T06:17:16.424Z,97657.7720268473
2022-08-26T06:21:19.477Z,97658.49033748104
2022-08-26T06:31:16.011Z,97653.77100112433
2022-08-26T06:34:16.081Z,97658.73054301557
2022-08-26T06:37:16.335Z,97658.16680290343
2022-08-26T06:41:16.947Z,97657.2079957681
2022-08-26T06:44:17.449Z,97663.54785776763
2022-08-26T06:47:15.981Z,97665.107812953
2022-08-26T06:51:18.147Z,97662.50566723412
2022-08-26T06:54:16.105Z,97662.4501428367
2022-08-26T06:57:16.870Z,97665.64133905253
2022-08-26T07:01:17.399Z,97664.08706982098
2022-08-26T07:04:21.953Z,97664.60982756526
2022-08-26T07:07:16.048Z,97662.22446845111
2022-08-26T07:11:16.694Z,97665.37640104746
2022-08-26T07:14:19.389Z,97660.3624304275
2022-08-26T07:17:16.936Z,97664.41284599071
2022-08-26T07:21:16.753Z,97666.38234032188
2022-08-26T07:24:16.201Z,97664.23485306744
2022-08-26T07:27:16.796Z,97666.97838721184
2022-08-26T07:31:19.964Z,97668.73682134786
2022-08-26T07:34:17.277Z,97670.47171218254
2022-08-26T07:37:17.635Z,97676.78422605545
2022-08-26T07:41:18.702Z,97683.39904135563
2022-08-26T07:44:17.218Z,97681.94925208774
2022-08-26T07:47:25.147Z,97682.31192934011
2022-08-26T08:01:16.322Z,97685.90433345208
2022-08-26T08:04:20.091Z,97683.48911199131
2022-08-26T08:07:16.836Z,97694.48618123663
2022-08-26T08:11:19.232Z,97687.6238119214
2022-08-26T08:14:19.250Z,97692.99057626682
2022-08-26T08:17:18.352Z,97691.68487512236
2022-08-26T08:21:22.182Z,97688.56565050046
2022-08-26T08:24:17.009Z,97685.77658337775
2022-08-26T08:27:18.108Z,97679.9800185758
2022-08-26T08:31:38.711Z,97684.72230657362
2022-08-26T08:34:16.510Z,97684.10035573966
2022-08-26T08:37:16.755Z,97681.5141272398
2022-08-26T08:41:29.904Z,97684.17994752385
2022-08-26T08:44:19.247Z,97682.49686585083
2022-08-26T08:47:25.078Z,97683.76837078827
2022-08-26T08:51:36.480Z,97686.09220061054
2022-08-26T09:01:35.215Z,97680.16520781566
2022-08-26T09:04:37.452Z,97680.03120645527
2022-08-26T09:07:21.277Z,97681.68332602213
2022-08-26T09:11:17.835Z,97675.31570664371
2022-08-26T09:14:16.335Z,97663.8082549684
2022-08-26T09:17:23.814Z,97670.55889499719
2022-08-26T09:21:32.288Z,97667.82070952017
2022-08-26T09:24:54.924Z,97666.14243255834
2022-08-26T09:41:24.382Z,97650.95180952713
2022-08-26T09:44:18.514Z,97648.99987970093
2022-08-26T09:47:22.653Z,97647.60461870591
2022-08-26T09:51:30.254Z,97645.86250043366
2022-08-26T09:54:30.383Z,97645.35260635246
2022-08-26T09:57:19.963Z,97643.95299278821
2022-08-26T10:01:30.873Z,97643.48322103724
2022-08-26T10:04:21.923Z,97638.92350868891
2022-08-26T10:08:00.344Z,97639.53334838962
2022-08-26T10:11:22.001Z,97635.86102882095
2022-08-26T10:14:22.618Z,97630.76756966238
2022-08-26T10:17:26.263Z,97627.78112787854
2022-08-26T10:21:23.731Z,97629.23377987849
2022-08-26T10:24:22.795Z,97627.17557615494
2022-08-26T10:27:26.427Z,97630.15933744118
2022-08-26T10:31:28.164Z,97621.17283554499
2022-08-26T10:34:18.042Z,97612.39312654187
2022-08-26T10:37:20.555Z,97617.00072504918
2022-08-26T10:41:21.322Z,97612.16928186199
2022-08-26T10:44:18.873Z,97603.8869161407
2022-08-26T10:47:21.928Z,97605.29012484662
2022-08-26T10:51:23.190Z,97601.03338396404
2022-08-26T10:54:22.921Z,97598.02824410521
2022-08-26T10:57:22.480Z,97593.32279828723
2022-08-26T11:01:59.204Z,97592.21575982115
2022-08-26T11:11:43.638Z,97590.84827129843
2022-08-26T11:14:53.043Z,97582.9478771703
2022-08-26T11:17:55.448Z,97584.69417114893
2022-08-26T11:31:53.497Z,97556.35308868276
2022-08-26T11:34:52.574Z,97550.62008977585
2022-08-26T11:37:18.232Z,97550.18307045632
2022-08-26T11:41:20.120Z,97552.23988403335
2022-08-26T11:44:19.380Z,97553.09513860437
2022-08-26T11:47:27.589Z,97548.79890591693
2022-08-26T11:51:22.256Z,97542.68750595198
2022-08-26T11:54:30.530Z,97536.7880024542
2022-08-26T12:01:26.424Z,97534.35970990465
2022-08-26T12:31:23.127Z,97493.23113285893
2022-08-26T12:41:38.272Z,97478.55187790951
2022-08-26T12:51:22.694Z,97462.92515010148
2022-08-26T13:01:21.439Z,97465.92565453648
2022-08-26T13:11:21.198Z,97450.62134286769
2022-08-26T13:21:19.475Z,97445.13368238497
2022-08-26T13:31:16.423Z,97425.65304273699
2022-08-26T13:41:17.341Z,97412.21352012573
2022-08-26T13:51:18.845Z,97400.6846884316
2022-08-26T14:01:16.687Z,97384.8431836323
2022-08-26T14:11:16.944Z,97378.44887526018
2022-08-26T14:21:17.369Z,97382.3262540925
2022-08-26T14:31:16.839Z,97375.12270808723
2022-08-26T14:41:19.078Z,97385.79779348735
2022-08-26T14:51:16.279Z,97375.78586856218
2022-08-26T15:11:18.648Z,97412.68304022643
2022-08-26T15:21:16.522Z,97465.33873066951
2022-08-26T15:24:19.210Z,97506.26205770642
2022-08-26T15:27:17.054Z,97480.50148212729
2022-08-26T15:41:15.782Z,97471.87038877503
2022-08-26T15:44:17.188Z,97467.57526547702
2022-08-26T15:47:16.257Z,97459.41882246833
2022-08-26T15:51:21.323Z,97457.20992219838
2022-08-26T15:54:19.781Z,97446.9927815309
2022-08-26T15:57:19.071Z,97441.78476601593
2022-08-26T16:01:18.079Z,97440.53534911868
2022-08-26T16:04:16.307Z,97444.42832271743
2022-08-26T16:07:16.515Z,97446.02924853319
2022-08-26T16:11:38.471Z,97442.42255026326
2022-08-26T16:14:38.100Z,97436.25104007582
2022-08-26T16:17:37.967Z,97446.41998439151
2022-08-26T16:31:16.500Z,97467.18313564328
2022-08-26T16:34:16.496Z,97465.8938426081
2022-08-26T16:37:16.461Z,97473.16671170366
2022-08-26T16:41:16.791Z,97475.65625134377
2022-08-26T16:44:16.793Z,97479.75971195118
2022-08-26T16:47:17.211Z,97474.67155899714
2022-08-26T16:51:18.620Z,97478.30692183635
2022-08-26T16:54:16.591Z,97472.43023728058
2022-08-26T16:57:16.514Z,97463.15058059778
2022-08-26T17:01:16.927Z,97451.2719314146
2022-08-26T17:04:16.682Z,97454.7738408054
2022-08-26T17:07:16.732Z,97453.95328717165
2022-08-26T17:11:16.504Z,97449.1553754333
2022-08-26T17:14:17.714Z,97451.3687609829
2022-08-26T17:17:16.753Z,97448.78043814804
2022-08-26T17:21:15.994Z,97447.65256497145
2022-08-26T17:24:16.130Z,97455.83143130744
2022-08-26T17:27:16.114Z,97454.8604311609
2022-08-26T17:31:16.375Z,97457.47061513997
2022-08-26T17:34:17.012Z,97463.53739902195
2022-08-26T17:37:16.967Z,97469.4917131094
2022-08-26T17:41:16.822Z,97476.20578685978
2022-08-26T17:44:16.825Z,97482.35699335713
2022-08-26T17:47:16.558Z,97479.23418299059
2022-08-26T17:51:17.791Z,97477.10342219681
2022-08-26T17:54:16.693Z,97482.9056824633
2022-08-26T17:57:16.580Z,97492.31032153068
2022-08-26T18:01:16.299Z,97501.74304976658
2022-08-26T18:04:16.712Z,97510.84208877453
2022-08-26T18:07:17.016Z,97512.55908200702
2022-08-26T18:11:19.894Z,97512.49011675167
2022-08-26T18:14:16.812Z,97516.6284970947
2022-08-26T18:17:19.409Z,97521.17478239424
2022-08-26T18:21:18.950Z,97529.88207930348
2022-08-26T18:24:17.237Z,97532.5208228798
2022-08-26T18:27:16.828Z,97529.73951033922
2022-08-26T18:31:16.439Z,97529.75850694298
2022-08-26T18:34:17.128Z,97540.32288032578
2022-08-26T18:37:16.907Z,97542.76559223201
2022-08-26T18:41:17.970Z,97544.14176054325
2022-08-26T18:44:19.694Z,97543.13544276489
2022-08-26T18:47:16.990Z,97543.94828981742
2022-08-26T18:51:18.695Z,97543.85124362678
2022-08-26T18:54:17.141Z,97545.05396523813
2022-08-26T18:57:16.703Z,97548.93784650219
2022-08-26T19:01:17.769Z,97556.678244123
2022-08-26T19:04:16.886Z,97558.51759976865
2022-08-26T19:07:16.577Z,97556.88784778367
2022-08-26T19:11:16.889Z,97554.63383279982
2022-08-26T19:14:17.211Z,97555.84922120345
2022-08-26T19:21:22.319Z,97548.58533771329
2022-08-26T19:24:22.303Z,97547.5761566818
2022-08-26T19:27:21.641Z,97540.6908790016
2022-08-26T19:31:16.514Z,97537.52406712263
2022-08-26T19:34:18.333Z,97533.99576874098
2022-08-26T19:41:18.477Z,97530.85154125205
2022-08-26T19:45:09.313Z,97530.66696548226
2022-08-26T19:47:16.436Z,97529.94469610232
2022-08-26T19:51:19.786Z,97532.93742062878
2022-08-26T19:54:16.783Z,97532.85227890864
2022-08-26T19:57:17.279Z,97527.59686108648
2022-08-26T20:01:17.673Z,97527.22883034425
2022-08-26T20:04:17.048Z,97530.41750517202
2022-08-26T20:07:18.890Z,97534.79655942021
2022-08-26T20:11:17.064Z,97537.79218373522
2022-08-26T20:14:19.137Z,97540.1588993151
2022-08-26T20:17:17.129Z,97540.41607918256
2022-08-26T20:21:36.748Z,97545.99239639896
2022-08-26T20:24:19.305Z,97547.80515153882
2022-08-26T20:27:16.978Z,97550.98418648075
2022-08-26T20:31:18.281Z,97547.65462906391
2022-08-26T20:34:19.790Z,97549.74071791414
2022-08-26T20:37:18.366Z,97550.79550314137
2022-08-26T20:41:16.710Z,97559.67554412632
2022-08-26T20:44:17.404Z,97555.29091267372
2022-08-26T20:47:16.274Z,97552.34067608912
2022-08-26T20:51:17.816Z,97555.09436528364
2022-08-26T20:54:18.193Z,97555.53234717682
2022-08-26T20:57:16.804Z,97556.99388128884
2022-08-26T21:01:22.160Z,97562.69112752996
2022-08-26T21:04:18.979Z,97561.33651668427
2022-08-26T21:07:16.250Z,97562.43142894616
2022-08-26T21:11:17.773Z,97560.91781250374
2022-08-26T21:14:18.125Z,97565.52205404022
2022-08-26T21:17:17.039Z,97570.39042097564
2022-08-26T21:31:19.238Z,97573.93889465713
2022-08-26T21:34:17.914Z,97576.38301658246
2022-08-26T21:37:16.973Z,97582.34326903525
2022-08-26T21:41:36.243Z,97587.91858304423
2022-08-26T22:11:16.864Z,97590.2231293069
2022-08-26T22:31:16.855Z,97596.77370969317
2022-08-26T22:34:17.564Z,97598.79372653099
2022-08-26T22:37:16.199Z,97593.29547755382
2022-08-26T22:41:18.087Z,97588.32553107383
2022-08-26T22:44:18.480Z,97584.62733190833
2022-08-26T23:01:39.816Z,97574.1862996935
2022-08-26T23:04:37.882Z,97575.22819157435
